Time;durP1;ratioP1;P1;durP2;ratioP2;P2;SDS_P1;SDS_P2;PMS_P1;PMS_P2;Temp;Humidity;BMP_temperature;BMP_pressure;BME280_temperature;BME280_humidity;BME280_pressure;Samples;Min_cycle;Max_cycle;Signal;HPM_P1;HPM_P2
2023/07/06 00:02:26;;;;;;;8.38;3.97;;;13.80;79.90;;;;;;5027351;28;20129;-81
2023/07/06 00:04:54;;;;;;;11.02;4.22;;;13.80;80.00;;;;;;5044954;28;20085;-81
2023/07/06 00:07:22;;;;;;;9.32;4.32;;;13.70;80.00;;;;;;5011693;28;20676;-81
2023/07/06 00:09:50;;;;;;;7.60;4.28;;;13.70;80.00;;;;;;5011839;28;20132;-81
2023/07/06 00:12:22;;;;;;;11.60;4.57;;;13.70;80.10;;;;;;5011853;28;20479;-81
2023/07/06 00:14:50;;;;;;;8.43;4.18;;;13.70;80.40;;;;;;5011628;28;20124;-81
2023/07/06 00:17:17;;;;;;;7.60;3.92;;;13.70;80.30;;;;;;5011394;28;20050;-81
2023/07/06 00:19:46;;;;;;;10.85;4.85;;;13.70;80.50;;;;;;5010780;28;20058;-81
2023/07/06 00:22:15;;;;;;;7.88;4.50;;;13.70;80.60;;;;;;5011481;28;20491;-81
2023/07/06 00:24:46;;;;;;;7.70;4.57;;;13.70;80.70;;;;;;5027251;28;20112;-81
2023/07/06 00:27:15;;;;;;;10.25;4.90;;;13.70;80.80;;;;;;5011553;28;20053;-80
2023/07/06 00:29:56;;;;;;;8.02;4.35;;;13.70;80.80;;;;;;5007831;28;20043;-80
2023/07/06 00:32:28;;;;;;;9.48;4.45;;;13.70;80.80;;;;;;5007918;28;20129;-81
2023/07/06 00:34:55;;;;;;;11.82;5.00;;;13.70;80.80;;;;;;4999000;28;20088;-81
2023/07/06 00:37:24;;;;;;;7.60;4.43;;;13.60;81.00;;;;;;5026786;28;20549;-80
2023/07/06 00:39:52;;;;;;;9.48;4.43;;;13.60;81.00;;;;;;5011055;28;20181;-81
2023/07/06 00:42:22;;;;;;;9.00;4.50;;;13.60;81.40;;;;;;5011005;28;20054;-81
2023/07/06 00:44:53;;;;;;;9.20;4.90;;;13.60;81.50;;;;;;5027646;28;20057;-81
2023/07/06 00:47:30;;;;;;;10.60;4.60;;;13.60;81.70;;;;;;5001964;28;20045;-80
2023/07/06 00:50:01;;;;;;;10.80;4.37;;;13.60;81.50;;;;;;5010927;28;20046;-81
2023/07/06 00:52:30;;;;;;;11.20;4.50;;;13.60;81.70;;;;;;5011429;28;20049;-81
2023/07/06 00:55:00;;;;;;;8.27;4.47;;;13.60;81.70;;;;;;5006505;28;20125;-81
2023/07/06 00:57:27;;;;;;;10.05;4.72;;;13.50;81.60;;;;;;5010790;28;20050;-80
2023/07/06 00:59:55;;;;;;;10.48;4.75;;;13.50;81.70;;;;;;5011216;28;20131;-81
2023/07/06 01:02:23;;;;;;;7.73;4.50;;;13.50;81.70;;;;;;5027482;28;20587;-81
2023/07/06 01:04:51;;;;;;;10.40;4.57;;;13.50;81.70;;;;;;5006723;28;20623;-81
2023/07/06 01:07:24;;;;;;;9.65;4.40;;;13.50;81.80;;;;;;5012319;28;20075;-81
2023/07/06 01:09:53;;;;;;;9.25;4.43;;;13.50;81.90;;;;;;5027733;28;20140;-81
2023/07/06 01:12:24;;;;;;;9.77;4.32;;;13.50;81.80;;;;;;5026359;28;20061;-80
2023/07/06 01:14:52;;;;;;;8.60;4.20;;;13.50;81.70;;;;;;5027233;28;20125;-81
2023/07/06 01:17:26;;;;;;;7.18;4.00;;;13.50;81.80;;;;;;5010711;28;20504;-80
2023/07/06 01:20:04;;;;;;;7.63;3.70;;;13.50;81.80;;;;;;5010650;28;20120;-80
2023/07/06 01:23:04;;;;;;;8.45;3.90;;;13.40;81.70;;;;;;5006900;28;20059;-81
2023/07/06 01:25:56;;;;;;;7.18;3.92;;;13.40;81.60;;;;;;4990395;28;20054;-80
2023/07/06 01:28:45;;;;;;;8.20;4.30;;;13.30;81.60;;;;;;5003485;28;20083;-81
2023/07/06 01:31:35;;;;;;;7.22;4.00;;;13.30;81.50;;;;;;5008666;28;20046;-81
2023/07/06 01:34:09;;;;;;;8.68;4.07;;;13.30;81.60;;;;;;5010494;28;20464;-81
2023/07/06 01:36:41;;;;;;;9.50;4.07;;;13.30;81.60;;;;;;5010423;28;20046;-81
2023/07/06 01:39:13;;;;;;;8.32;4.00;;;13.30;81.60;;;;;;5006769;28;20050;-81
2023/07/06 01:41:40;;;;;;;8.67;3.90;;;13.30;81.60;;;;;;4990193;28;20058;-80
2023/07/06 01:44:09;;;;;;;8.82;4.53;;;13.30;81.60;;;;;;5008500;28;20069;-81
2023/07/06 01:46:39;;;;;;;8.75;3.72;;;13.30;81.60;;;;;;5026981;28;20684;-81
2023/07/06 01:49:06;;;;;;;8.75;4.00;;;13.30;81.50;;;;;;5009872;28;20690;-80
2023/07/06 01:51:43;;;;;;;8.00;4.05;;;13.20;81.50;;;;;;5009844;28;20112;-81
2023/07/06 01:54:14;;;;;;;8.20;3.83;;;13.20;81.60;;;;;;5026579;28;20085;-81
2023/07/06 01:56:50;;;;;;;7.03;4.00;;;13.20;81.50;;;;;;5009995;28;20338;-80
2023/07/06 01:59:23;;;;;;;6.43;3.83;;;13.20;81.50;;;;;;5009977;28;20468;-81
2023/07/06 02:01:59;;;;;;;8.90;4.00;;;13.10;81.50;;;;;;5030046;28;20083;-80
2023/07/06 02:04:28;;;;;;;8.23;4.28;;;13.10;81.40;;;;;;5030228;28;20056;-81
2023/07/06 02:06:56;;;;;;;7.90;3.80;;;13.10;81.50;;;;;;5008737;28;20138;-81
2023/07/06 02:09:23;;;;;;;8.50;4.22;;;13.10;81.40;;;;;;4993761;28;20169;-81
2023/07/06 02:11:51;;;;;;;8.50;3.95;;;13.10;81.50;;;;;;5027324;28;20060;-81
2023/07/06 02:14:20;;;;;;;7.47;3.90;;;13.10;81.60;;;;;;5010048;28;20966;-81
2023/07/06 02:16:50;;;;;;;8.85;4.03;;;13.10;81.60;;;;;;5010160;28;20082;-81
2023/07/06 02:19:21;;;;;;;7.30;3.80;;;13.00;81.60;;;;;;5012445;28;20085;-80
2023/07/06 02:21:50;;;;;;;7.90;3.90;;;13.10;81.60;;;;;;5012776;28;20054;-80
2023/07/06 02:24:17;;;;;;;8.05;4.40;;;13.00;81.60;;;;;;5012753;28;20140;-81
2023/07/06 02:26:45;;;;;;;7.85;4.38;;;13.00;81.60;;;;;;5029579;28;20042;-81
2023/07/06 02:29:12;;;;;;;8.45;4.32;;;13.00;81.60;;;;;;5012944;28;20524;-80
2023/07/06 02:31:39;;;;;;;8.20;4.10;;;13.00;81.60;;;;;;5029428;28;20061;-81
2023/07/06 02:34:06;;;;;;;7.90;4.00;;;13.00;81.60;;;;;;5013175;28;20052;-81
2023/07/06 02:36:34;;;;;;;9.20;4.18;;;13.00;81.70;;;;;;5012664;28;20542;-81
2023/07/06 02:39:03;;;;;;;8.93;4.40;;;12.90;81.70;;;;;;5013276;28;20651;-80
2023/07/06 02:41:35;;;;;;;8.43;4.28;;;12.90;81.70;;;;;;5028343;28;20054;-80
2023/07/06 02:44:02;;;;;;;8.23;4.30;;;12.90;81.80;;;;;;5012866;28;20061;-80
2023/07/06 02:46:29;;;;;;;9.15;4.70;;;12.90;81.80;;;;;;5012309;28;20050;-80
2023/07/06 02:48:56;;;;;;;9.07;4.63;;;12.90;81.90;;;;;;5012766;28;20042;-80
2023/07/06 02:51:23;;;;;;;7.97;4.60;;;12.90;81.90;;;;;;5012460;28;20050;-81
2023/07/06 02:53:51;;;;;;;10.02;4.72;;;12.90;82.00;;;;;;5012368;28;20496;-80
2023/07/06 02:56:19;;;;;;;8.90;4.47;;;12.90;82.00;;;;;;5028841;28;20049;-81
2023/07/06 02:58:46;;;;;;;8.77;4.57;;;12.90;82.30;;;;;;5027999;28;20215;-81
2023/07/06 03:01:13;;;;;;;8.88;4.78;;;12.90;82.20;;;;;;5007889;28;20217;-81
2023/07/06 03:03:40;;;;;;;12.23;5.20;;;12.90;82.20;;;;;;4992267;28;20117;-80
2023/07/06 03:06:07;;;;;;;11.80;5.18;;;12.80;82.30;;;;;;5016576;28;20141;-81
2023/07/06 03:08:34;;;;;;;9.13;5.07;;;12.80;82.50;;;;;;5008429;28;20049;-80
2023/07/06 03:11:02;;;;;;;10.65;4.85;;;12.90;82.50;;;;;;4998596;28;20050;-81
2023/07/06 03:13:31;;;;;;;9.63;5.10;;;12.80;82.50;;;;;;5027697;28;20056;-81
2023/07/06 03:15:58;;;;;;;10.23;5.55;;;12.80;82.50;;;;;;5006781;28;21003;-80
2023/07/06 03:18:26;;;;;;;10.25;5.20;;;12.80;82.60;;;;;;5008980;28;20058;-80
2023/07/06 03:20:53;;;;;;;9.93;5.10;;;12.80;82.60;;;;;;5028703;28;20065;-80
2023/07/06 03:23:21;;;;;;;11.25;4.95;;;12.80;82.60;;;;;;5012597;28;20139;-80
2023/07/06 03:25:51;;;;;;;10.50;5.13;;;12.80;82.60;;;;;;5028444;28;20516;-80
2023/07/06 03:28:20;;;;;;;11.57;5.20;;;12.80;82.70;;;;;;5011698;28;20057;-80
2023/07/06 03:30:47;;;;;;;9.77;5.05;;;12.80;82.70;;;;;;5007966;28;20133;-81
2023/07/06 03:33:13;;;;;;;11.17;5.10;;;12.80;82.80;;;;;;4993488;28;20042;-80
2023/07/06 03:35:42;;;;;;;12.38;5.90;;;12.90;82.80;;;;;;5008506;28;20129;-80
2023/07/06 03:38:09;;;;;;;11.50;5.60;;;12.80;82.90;;;;;;4992438;28;20081;-81
2023/07/06 03:40:36;;;;;;;12.13;5.90;;;12.80;82.80;;;;;;5008621;28;20057;-81
2023/07/06 03:43:03;;;;;;;14.00;5.47;;;12.90;82.90;;;;;;5026970;28;20085;-80
2023/07/06 03:45:31;;;;;;;12.00;5.63;;;12.90;83.00;;;;;;5028160;28;20566;-80
2023/07/06 03:47:59;;;;;;;10.55;5.40;;;12.90;83.00;;;;;;5028292;28;20737;-80
2023/07/06 03:50:26;;;;;;;11.93;5.43;;;12.90;83.00;;;;;;5010584;28;20137;-80
2023/07/06 03:52:53;;;;;;;12.23;5.70;;;12.90;83.10;;;;;;5012100;28;20054;-80
2023/07/06 03:55:24;;;;;;;11.35;5.68;;;12.90;83.20;;;;;;5028316;28;20054;-80
2023/07/06 03:57:51;;;;;;;11.57;5.30;;;12.90;83.20;;;;;;5011683;28;20042;-80
2023/07/06 04:00:22;;;;;;;9.85;4.80;;;12.90;83.20;;;;;;5028131;28;20108;-80
2023/07/06 04:02:52;;;;;;;10.35;5.55;;;12.90;83.20;;;;;;5011773;28;20065;-80
2023/07/06 04:05:23;;;;;;;10.90;5.53;;;12.90;83.30;;;;;;5027727;28;20050;-80
2023/07/06 04:07:53;;;;;;;10.13;5.35;;;12.90;83.30;;;;;;5026750;28;20264;-80
2023/07/06 04:10:21;;;;;;;10.63;5.43;;;12.90;83.40;;;;;;5027812;28;20057;-80
2023/07/06 04:12:48;;;;;;;13.15;5.38;;;12.90;83.60;;;;;;5028272;28;20101;-80
2023/07/06 04:15:17;;;;;;;11.10;5.47;;;12.90;83.60;;;;;;5011639;28;20054;-80
2023/07/06 04:17:44;;;;;;;11.75;5.32;;;12.90;83.70;;;;;;5011495;28;20140;-81
2023/07/06 04:20:19;;;;;;;11.90;5.30;;;13.00;83.80;;;;;;5011340;28;20141;-80
2023/07/06 04:22:47;;;;;;;11.00;5.53;;;12.90;84.00;;;;;;5010601;28;20706;-81
2023/07/06 04:25:19;;;;;;;12.82;5.80;;;13.00;84.00;;;;;;5027188;28;20077;-81
2023/07/06 04:27:47;;;;;;;11.98;5.25;;;13.00;84.10;;;;;;5027815;28;20225;-80
2023/07/06 04:30:15;;;;;;;13.15;5.45;;;13.00;84.30;;;;;;5011279;28;20147;-81
2023/07/06 04:32:43;;;;;;;12.50;5.18;;;13.00;84.50;;;;;;5027332;28;20054;-81
2023/07/06 04:35:11;;;;;;;11.23;5.37;;;13.00;84.50;;;;;;5027556;28;20054;-80
2023/07/06 04:37:41;;;;;;;13.48;5.32;;;13.00;84.50;;;;;;5012194;28;20138;-80
2023/07/06 04:40:11;;;;;;;11.27;5.90;;;13.10;84.60;;;;;;5027779;28;20488;-80
2023/07/06 04:42:39;;;;;;;9.55;5.45;;;13.10;84.60;;;;;;5007403;28;20046;-80
2023/07/06 04:45:09;;;;;;;9.55;5.18;;;13.10;84.60;;;;;;5011110;28;20108;-80
2023/07/06 04:47:39;;;;;;;10.10;4.63;;;13.10;84.70;;;;;;5011034;28;20049;-81
2023/07/06 04:50:07;;;;;;;10.18;5.50;;;13.10;84.70;;;;;;5010913;28;20061;-80
2023/07/06 04:52:34;;;;;;;9.73;5.05;;;13.10;84.70;;;;;;5027275;28;20613;-80
2023/07/06 04:55:02;;;;;;;12.32;5.53;;;13.20;84.80;;;;;;5010774;28;20148;-80
2023/07/06 04:57:29;;;;;;;13.45;5.28;;;13.20;85.00;;;;;;5010819;28;20081;-80
2023/07/06 04:59:56;;;;;;;10.60;4.77;;;13.20;85.00;;;;;;5027480;28;20317;-80
2023/07/06 05:02:23;;;;;;;11.55;5.22;;;13.30;85.20;;;;;;5042958;28;20560;-79
2023/07/06 05:04:51;;;;;;;10.25;5.32;;;13.30;85.20;;;;;;5028058;28;20451;-79
2023/07/06 05:07:19;;;;;;;9.15;5.07;;;13.30;85.20;;;;;;5007124;28;20054;-79
2023/07/06 05:09:49;;;;;;;13.90;5.38;;;13.30;85.20;;;;;;5008062;28;20057;-79
2023/07/06 05:12:17;;;;;;;12.83;6.03;;;13.30;85.30;;;;;;5007607;28;20157;-79
2023/07/06 05:14:44;;;;;;;12.50;5.47;;;13.30;85.50;;;;;;5008255;28;20122;-79
2023/07/06 05:17:11;;;;;;;12.88;5.53;;;13.40;85.50;;;;;;4991846;28;20993;-79
2023/07/06 05:19:38;;;;;;;12.15;5.78;;;13.50;85.80;;;;;;5000871;28;20053;-79
2023/07/06 05:22:06;;;;;;;12.38;5.82;;;13.50;85.90;;;;;;5010783;28;20050;-79
2023/07/06 05:24:33;;;;;;;12.10;5.63;;;13.50;86.00;;;;;;5010867;28;20049;-79
2023/07/06 05:27:00;;;;;;;10.10;5.35;;;13.50;85.90;;;;;;5010889;28;20143;-80
2023/07/06 05:29:28;;;;;;;12.05;6.00;;;13.50;86.00;;;;;;5027283;28;20137;-79
2023/07/06 05:31:55;;;;;;;14.27;5.85;;;13.60;86.20;;;;;;5010951;28;20054;-79
2023/07/06 05:34:22;;;;;;;12.68;6.18;;;13.60;86.10;;;;;;5010747;28;20575;-79
2023/07/06 05:36:49;;;;;;;14.00;6.53;;;13.70;86.40;;;;;;5009483;28;20054;-79
2023/07/06 05:39:16;;;;;;;11.13;5.72;;;13.70;86.50;;;;;;4994569;28;20102;-80
2023/07/06 05:41:44;;;;;;;13.35;6.15;;;13.70;86.60;;;;;;5011095;28;20058;-79
2023/07/06 05:44:11;;;;;;;14.93;6.63;;;13.80;86.60;;;;;;4994492;28;20050;-79
2023/07/06 05:46:39;;;;;;;13.77;6.25;;;13.90;86.70;;;;;;5006599;28;20088;-79
2023/07/06 05:49:06;;;;;;;12.67;5.90;;;13.90;86.70;;;;;;5014099;28;20876;-79
2023/07/06 05:51:34;;;;;;;16.60;6.53;;;13.90;86.60;;;;;;5013819;28;20133;-79
2023/07/06 05:54:01;;;;;;;13.88;6.55;;;13.90;86.60;;;;;;5013253;28;20531;-81
2023/07/06 05:56:31;;;;;;;14.23;6.00;;;14.00;86.60;;;;;;5012908;28;20606;-79
2023/07/06 05:58:59;;;;;;;16.35;6.53;;;14.10;87.00;;;;;;5013854;28;20056;-79
2023/07/06 06:01:29;;;;;;;14.57;6.30;;;14.10;87.00;;;;;;5028849;28;20741;-79
2023/07/06 06:03:57;;;;;;;12.68;5.90;;;14.20;87.10;;;;;;5012504;28;20054;-79
2023/07/06 06:06:26;;;;;;;13.27;6.13;;;14.20;87.10;;;;;;5025589;28;20081;-79
2023/07/06 06:08:54;;;;;;;11.52;5.90;;;14.30;87.00;;;;;;5025624;28;20538;-80
2023/07/06 06:11:21;;;;;;;14.18;6.35;;;14.40;87.30;;;;;;5023426;28;20058;-81
2023/07/06 06:13:49;;;;;;;13.40;6.23;;;14.40;87.50;;;;;;5020395;28;20137;-81
2023/07/06 06:16:16;;;;;;;13.82;6.72;;;14.50;87.30;;;;;;5015255;28;20598;-81
2023/07/06 06:18:44;;;;;;;14.13;6.25;;;14.50;87.30;;;;;;5023875;28;20045;-81
2023/07/06 06:21:12;;;;;;;12.73;5.78;;;14.60;87.10;;;;;;5027631;28;20504;-80
2023/07/06 06:23:40;;;;;;;14.73;6.10;;;14.70;87.00;;;;;;5010845;28;20046;-79
2023/07/06 06:26:07;;;;;;;14.33;6.50;;;14.70;87.10;;;;;;5009998;28;20077;-80
2023/07/06 06:28:35;;;;;;;12.80;6.07;;;14.80;87.20;;;;;;5021138;28;20047;-80
2023/07/06 06:31:03;;;;;;;14.48;6.22;;;14.90;87.20;;;;;;5025771;28;20057;-79
2023/07/06 06:33:30;;;;;;;14.10;5.47;;;15.00;87.40;;;;;;5027038;28;20061;-78
2023/07/06 06:35:58;;;;;;;13.90;5.63;;;15.00;87.10;;;;;;5023100;28;20065;-80
2023/07/06 06:38:27;;;;;;;12.90;6.47;;;15.00;86.80;;;;;;5009926;28;20066;-80
2023/07/06 06:40:54;;;;;;;12.30;4.50;;;15.10;86.80;;;;;;5017219;28;20058;-80
2023/07/06 06:43:23;;;;;;;11.48;4.47;;;15.20;87.00;;;;;;5017385;28;20146;-79
2023/07/06 06:45:50;;;;;;;14.23;6.18;;;15.30;86.80;;;;;;5001134;28;20050;-81
2023/07/06 06:48:17;;;;;;;11.80;5.32;;;15.30;86.50;;;;;;5019498;28;20487;-82
2023/07/06 06:50:45;;;;;;;15.33;6.33;;;15.40;86.30;;;;;;5028421;28;20080;-81
2023/07/06 06:53:13;;;;;;;14.32;6.78;;;15.40;86.30;;;;;;5018008;28;20117;-80
2023/07/06 06:55:42;;;;;;;15.40;6.15;;;15.50;86.40;;;;;;5025837;28;20050;-80
2023/07/06 06:58:10;;;;;;;12.30;5.80;;;15.60;86.20;;;;;;5027889;28;20046;-79
2023/07/06 07:00:39;;;;;;;13.48;7.50;;;15.60;85.90;;;;;;5025561;28;20738;-80
2023/07/06 07:03:08;;;;;;;14.37;7.30;;;15.60;85.90;;;;;;5020675;28;20053;-80
2023/07/06 07:05:35;;;;;;;14.50;5.93;;;15.60;86.00;;;;;;5011990;28;20056;-79
2023/07/06 07:08:03;;;;;;;14.73;5.50;;;15.80;85.90;;;;;;5027196;28;20060;-80
2023/07/06 07:10:31;;;;;;;13.40;7.28;;;15.80;85.70;;;;;;5020351;28;20590;-78
2023/07/06 07:12:59;;;;;;;14.85;7.38;;;15.80;85.80;;;;;;4997790;28;20112;-79
2023/07/06 07:15:27;;;;;;;13.67;6.50;;;16.00;85.70;;;;;;4999573;28;20054;-78
2023/07/06 07:17:55;;;;;;;14.63;6.90;;;16.00;85.40;;;;;;5025744;28;20058;-78
2023/07/06 07:20:22;;;;;;;14.23;7.15;;;16.00;85.30;;;;;;5009681;28;20050;-78
2023/07/06 07:22:49;;;;;;;13.98;6.70;;;16.00;85.00;;;;;;5027325;28;20042;-77
2023/07/06 07:25:17;;;;;;;12.90;7.07;;;16.10;84.70;;;;;;5015429;28;20053;-78
2023/07/06 07:27:46;;;;;;;15.23;6.97;;;16.20;84.50;;;;;;4993370;28;20062;-78
2023/07/06 07:30:14;;;;;;;14.07;8.27;;;16.20;84.30;;;;;;4994523;28;20057;-78
2023/07/06 07:32:41;;;;;;;13.23;6.80;;;16.30;84.00;;;;;;5030284;28;20124;-79
2023/07/06 07:35:09;;;;;;;16.83;7.40;;;16.40;83.60;;;;;;5011384;28;20056;-78
2023/07/06 07:37:36;;;;;;;16.63;7.20;;;16.40;83.70;;;;;;5027352;28;20046;-78
2023/07/06 07:40:05;;;;;;;16.10;6.93;;;16.40;83.40;;;;;;5028044;28;20482;-78
2023/07/06 07:42:32;;;;;;;15.25;7.53;;;16.50;83.20;;;;;;5014186;28;20073;-78
2023/07/06 07:44:59;;;;;;;14.73;8.40;;;16.50;83.00;;;;;;5023998;28;20053;-78
2023/07/06 07:47:28;;;;;;;15.10;7.90;;;16.50;83.20;;;;;;5028053;28;20560;-78
2023/07/06 07:49:55;;;;;;;17.73;8.10;;;16.60;83.30;;;;;;5027002;28;20060;-78
2023/07/06 07:52:22;;;;;;;14.13;8.43;;;16.60;82.90;;;;;;5026436;28;20163;-78
2023/07/06 07:54:52;;;;;;;13.23;6.68;;;16.70;82.40;;;;;;5022317;28;20198;-78
2023/07/06 07:57:19;;;;;;;11.50;6.68;;;16.70;82.40;;;;;;5040652;28;20085;-78
2023/07/06 07:59:48;;;;;;;10.60;6.18;;;16.70;81.80;;;;;;5020297;28;20117;-78
2023/07/06 08:02:15;;;;;;;13.20;6.45;;;16.80;81.80;;;;;;5025697;28;20488;-78
2023/07/06 08:04:44;;;;;;;15.23;6.33;;;16.80;81.50;;;;;;5027487;28;20118;-80
2023/07/06 08:07:11;;;;;;;12.50;6.70;;;16.80;81.20;;;;;;5026260;28;20042;-78
2023/07/06 08:09:38;;;;;;;8.13;4.80;;;16.80;80.80;;;;;;5042346;28;20902;-80
2023/07/06 08:12:06;;;;;;;10.80;4.40;;;16.90;79.50;;;;;;5027414;28;20161;-79
2023/07/06 08:14:36;;;;;;;9.35;4.55;;;16.90;79.40;;;;;;5009827;28;20050;-78
2023/07/06 08:17:04;;;;;;;9.77;4.97;;;16.90;78.70;;;;;;5026755;28;20140;-80
2023/07/06 08:19:32;;;;;;;10.43;5.18;;;17.00;78.30;;;;;;5008496;28;20052;-79
2023/07/06 08:22:00;;;;;;;13.40;5.68;;;17.00;77.60;;;;;;5025598;28;20042;-78
2023/07/06 08:24:29;;;;;;;10.27;4.63;;;17.00;77.70;;;;;;5009486;28;20464;-79
2023/07/06 08:26:56;;;;;;;8.93;4.35;;;17.10;78.00;;;;;;5027908;28;20061;-78
2023/07/06 08:29:23;;;;;;;9.63;4.30;;;17.20;76.80;;;;;;5027446;28;20108;-78
2023/07/06 08:31:50;;;;;;;10.18;4.65;;;17.20;76.90;;;;;;5026734;28;20050;-78
2023/07/06 08:34:18;;;;;;;9.52;4.00;;;17.20;76.20;;;;;;5027725;28;20623;-79
2023/07/06 08:36:45;;;;;;;8.18;3.33;;;17.20;76.50;;;;;;5026077;28;20081;-78
2023/07/06 08:39:14;;;;;;;7.88;3.10;;;17.30;76.10;;;;;;5027720;28;20534;-79
2023/07/06 08:41:45;;;;;;;12.70;4.10;;;17.40;75.40;;;;;;5026995;28;20111;-79
2023/07/06 08:44:14;;;;;;;8.55;4.25;;;17.50;73.60;;;;;;5026480;28;20143;-81
2023/07/06 08:46:45;;;;;;;9.48;4.38;;;17.50;74.00;;;;;;5044000;28;20771;-81
2023/07/06 08:49:24;;;;;;;7.95;3.92;;;17.60;74.30;;;;;;5026925;28;20077;-80
2023/07/06 08:51:53;;;;;;;7.68;3.42;;;17.60;73.90;;;;;;5026984;28;20105;-78
2023/07/06 08:54:25;;;;;;;6.80;2.80;;;17.70;73.90;;;;;;5026577;28;20058;-78
2023/07/06 08:56:52;;;;;;;9.20;3.75;;;17.70;73.10;;;;;;5027170;28;20064;-79
2023/07/06 08:59:32;;;;;;;8.35;2.70;;;17.80;73.00;;;;;;5025793;28;20054;-78
2023/07/06 09:02:01;;;;;;;5.97;2.70;;;17.80;71.80;;;;;;5038553;28;20096;-78
2023/07/06 09:04:29;;;;;;;10.02;2.60;;;17.80;71.90;;;;;;5026543;28;20132;-78
2023/07/06 09:07:00;;;;;;;8.27;3.57;;;17.80;71.20;;;;;;5023466;28;20490;-79
2023/07/06 09:09:28;;;;;;;8.18;3.22;;;17.80;71.10;;;;;;5027022;28;20156;-79
2023/07/06 09:12:00;;;;;;;7.53;2.72;;;17.80;71.70;;;;;;5025235;28;20101;-78
2023/07/06 09:14:28;;;;;;;7.60;2.53;;;17.90;71.70;;;;;;5019275;28;20058;-78
2023/07/06 09:16:58;;;;;;;6.82;2.35;;;18.00;69.20;;;;;;5026654;28;20053;-79
2023/07/06 09:19:26;;;;;;;7.80;2.60;;;18.00;69.70;;;;;;5010615;28;20055;-78
2023/07/06 09:21:55;;;;;;;5.80;2.13;;;18.00;69.70;;;;;;5008040;28;20076;-78
2023/07/06 09:24:27;;;;;;;4.53;2.05;;;18.00;69.30;;;;;;5009027;28;20881;-79
2023/07/06 09:26:58;;;;;;;3.83;1.50;;;18.00;68.70;;;;;;5023449;28;20060;-78
2023/07/06 09:29:32;;;;;;;4.82;1.75;;;18.00;67.90;;;;;;5008899;28;20049;-79
2023/07/06 09:32:14;;;;;;;5.60;1.77;;;18.10;68.00;;;;;;5009550;28;20042;-79
2023/07/06 09:34:44;;;;;;;3.97;1.40;;;18.10;67.40;;;;;;5026919;28;20046;-79
2023/07/06 09:37:13;;;;;;;5.78;1.40;;;18.20;66.40;;;;;;5010581;28;20141;-78
2023/07/06 09:39:41;;;;;;;4.53;1.10;;;18.20;65.50;;;;;;5028408;28;20145;-78
2023/07/06 09:42:15;;;;;;;5.13;1.50;;;18.30;64.70;;;;;;5026297;28;20137;-79
2023/07/06 09:44:43;;;;;;;5.77;2.30;;;18.30;62.40;;;;;;5010688;28;20943;-79
2023/07/06 09:47:12;;;;;;;7.35;2.60;;;18.40;63.60;;;;;;5020471;28;20054;-79
2023/07/06 09:49:45;;;;;;;5.65;1.90;;;18.40;64.30;;;;;;5021066;28;20108;-79
2023/07/06 09:52:16;;;;;;;5.05;1.50;;;18.50;63.70;;;;;;5025276;28;20125;-80
2023/07/06 09:54:50;;;;;;;3.83;1.70;;;18.50;62.50;;;;;;5009425;28;20064;-80
2023/07/06 09:57:19;;;;;;;6.57;2.10;;;18.50;62.00;;;;;;5026299;28;20096;-78
2023/07/06 09:59:48;;;;;;;5.20;2.25;;;18.50;63.00;;;;;;5026001;28;20057;-79
2023/07/06 10:02:35;;;;;;;5.88;2.00;;;18.50;63.90;;;;;;5042355;28;20132;-79
2023/07/06 10:05:14;;;;;;;4.45;2.10;;;18.50;63.10;;;;;;5022263;28;20060;-78
2023/07/06 10:07:48;;;;;;;7.20;2.28;;;18.50;62.80;;;;;;5007515;28;20053;-79
2023/07/06 10:10:22;;;;;;;5.17;1.93;;;18.50;63.30;;;;;;5024361;28;20038;-80
2023/07/06 10:12:55;;;;;;;5.22;2.00;;;18.60;62.50;;;;;;5000777;28;20129;-78
2023/07/06 10:15:29;;;;;;;4.32;2.13;;;18.50;63.60;;;;;;5023822;28;20136;-79
2023/07/06 10:18:03;;;;;;;5.10;2.20;;;18.50;64.30;;;;;;5003569;28;20053;-80
2023/07/06 10:20:37;;;;;;;6.05;2.00;;;18.50;64.80;;;;;;5024473;28;20108;-80
2023/07/06 10:23:24;;;;;;;7.80;2.30;;;18.60;65.30;;;;;;5027499;28;20105;-79
2023/07/06 10:26:07;;;;;;;5.65;2.10;;;18.60;66.10;;;;;;4992578;28;20560;-79
2023/07/06 10:28:39;;;;;;;4.85;2.05;;;18.70;66.50;;;;;;4991820;28;20057;-79
2023/07/06 10:31:10;;;;;;;6.65;2.50;;;18.70;66.10;;;;;;5006965;28;20046;-78
2023/07/06 10:33:52;;;;;;;6.25;2.20;;;18.80;65.80;;;;;;5021614;28;20782;-79
2023/07/06 10:36:20;;;;;;;6.27;1.90;;;18.80;64.50;;;;;;5027519;28;20498;-78
2023/07/06 10:38:48;;;;;;;5.70;1.85;;;18.90;64.00;;;;;;5027747;28;20058;-78
2023/07/06 10:41:31;;;;;;;3.95;1.70;;;18.90;62.90;;;;;;5009723;28;20049;-78
2023/07/06 10:44:44;;;;;;;4.10;1.77;;;19.00;63.00;;;;;;5020371;28;20054;-78
2023/07/06 10:47:35;;;;;;;4.53;1.70;;;18.90;63.00;;;;;;5026906;28;20053;-79
2023/07/06 10:50:25;;;;;;;4.20;1.50;;;18.90;63.50;;;;;;5009826;28;20073;-77
2023/07/06 10:53:02;;;;;;;5.32;1.80;;;18.90;63.20;;;;;;5018125;28;20054;-78
2023/07/06 10:55:34;;;;;;;4.47;1.50;;;18.90;62.10;;;;;;5019822;28;20061;-80
2023/07/06 10:58:25;;;;;;;5.07;1.58;;;18.90;62.50;;;;;;5029783;28;20057;-78
2023/07/06 11:00:55;;;;;;;5.25;1.42;;;18.90;62.30;;;;;;5027133;28;20104;-78
2023/07/06 11:03:27;;;;;;;7.80;2.33;;;19.00;61.90;;;;;;5026105;28;20161;-78
2023/07/06 11:05:57;;;;;;;5.25;1.67;;;19.00;62.90;;;;;;5021639;28;20105;-78
2023/07/06 11:09:10;;;;;;;5.18;1.50;;;19.10;63.10;;;;;;5026938;28;20118;-78
2023/07/06 11:11:39;;;;;;;5.18;1.90;;;19.10;62.50;;;;;;5002093;28;20053;-78
2023/07/06 11:14:30;;;;;;;7.10;1.80;;;19.20;63.00;;;;;;5025663;28;21002;-78
2023/07/06 11:17:08;;;;;;;3.83;1.40;;;19.20;63.50;;;;;;5022112;28;20519;-77
2023/07/06 11:19:39;;;;;;;5.00;1.60;;;19.30;64.00;;;;;;5026134;28;20100;-78
2023/07/06 11:22:10;;;;;;;6.45;1.60;;;19.40;62.40;;;;;;5026978;28;20056;-78
2023/07/06 11:24:41;;;;;;;6.95;2.17;;;19.50;60.50;;;;;;5020283;28;20046;-79
2023/07/06 11:27:22;;;;;;;4.63;1.42;;;19.50;61.40;;;;;;5027948;28;20145;-80
2023/07/06 11:29:49;;;;;;;3.70;1.37;;;19.50;62.00;;;;;;5041670;28;20061;-81
2023/07/06 11:32:25;;;;;;;5.05;1.20;;;19.50;60.20;;;;;;5027886;28;20120;-80
2023/07/06 11:35:14;;;;;;;4.78;1.30;;;19.60;59.80;;;;;;5027100;28;20583;-79
2023/07/06 11:37:54;;;;;;;4.78;1.20;;;19.60;59.00;;;;;;5018336;28;20089;-78
2023/07/06 11:40:38;;;;;;;4.20;1.10;;;19.60;58.90;;;;;;5026422;28;20056;-80
2023/07/06 11:43:23;;;;;;;4.20;1.00;;;19.70;59.10;;;;;;5023455;28;20057;-79
2023/07/06 11:46:00;;;;;;;4.60;1.10;;;19.70;57.30;;;;;;5008579;28;20077;-78
2023/07/06 11:48:34;;;;;;;3.65;1.00;;;19.90;56.90;;;;;;5027257;28;20126;-78
2023/07/06 11:51:03;;;;;;;4.00;1.20;;;19.90;56.10;;;;;;5027682;28;20057;-78
2023/07/06 11:53:42;;;;;;;4.63;1.30;;;19.90;56.90;;;;;;5019126;28;20072;-80
2023/07/06 11:56:22;;;;;;;4.63;1.10;;;20.00;54.80;;;;;;5017769;28;20054;-78
2023/07/06 11:58:59;;;;;;;3.33;1.15;;;20.00;54.80;;;;;;5026761;28;20041;-79
2023/07/06 12:01:40;;;;;;;6.45;1.40;;;20.00;54.20;;;;;;5008621;28;20530;-77
2023/07/06 12:04:15;;;;;;;4.55;1.48;;;20.00;54.60;;;;;;5041774;28;20061;-78
2023/07/06 12:06:43;;;;;;;6.28;1.60;;;20.00;54.00;;;;;;5023552;28;20057;-77
2023/07/06 12:09:18;;;;;;;6.17;1.60;;;20.00;55.60;;;;;;5017932;28;20061;-77
2023/07/06 12:11:47;;;;;;;5.18;1.48;;;20.00;56.00;;;;;;5023998;28;20061;-78
2023/07/06 12:14:20;;;;;;;5.22;1.25;;;20.10;55.90;;;;;;5021218;28;20054;-78
2023/07/06 12:16:50;;;;;;;6.38;1.50;;;20.10;56.40;;;;;;5024289;28;20129;-78
2023/07/06 12:19:19;;;;;;;4.88;1.45;;;20.10;56.60;;;;;;5025901;28;20045;-78
2023/07/06 12:21:50;;;;;;;3.97;1.60;;;20.20;56.00;;;;;;5019681;28;20047;-75
2023/07/06 12:24:20;;;;;;;4.80;1.40;;;20.30;56.50;;;;;;5020769;28;20056;-77
2023/07/06 12:26:50;;;;;;;4.53;1.40;;;20.30;56.40;;;;;;5040301;28;20064;-77
2023/07/06 12:29:19;;;;;;;6.38;1.60;;;20.40;56.40;;;;;;5027772;28;20969;-78
2023/07/06 12:31:47;;;;;;;4.22;1.40;;;20.50;55.90;;;;;;5019634;28;20046;-78
2023/07/06 12:34:19;;;;;;;4.00;1.30;;;20.50;56.10;;;;;;5017985;28;20130;-77
2023/07/06 12:36:49;;;;;;;4.05;1.30;;;20.50;55.80;;;;;;5014268;28;20435;-78
2023/07/06 12:39:19;;;;;;;6.13;1.50;;;20.50;56.10;;;;;;5020535;28;20057;-78
2023/07/06 12:41:46;;;;;;;7.20;1.67;;;20.50;56.20;;;;;;5026125;28;20046;-77
2023/07/06 12:44:17;;;;;;;4.93;2.10;;;20.50;56.30;;;;;;5028356;28;20069;-77
2023/07/06 12:46:51;;;;;;;5.27;1.83;;;20.50;56.40;;;;;;5009424;28;20104;-78
2023/07/06 12:49:22;;;;;;;7.55;1.90;;;20.50;55.90;;;;;;5023359;28;20930;-77
2023/07/06 12:51:54;;;;;;;4.60;1.85;;;20.50;56.70;;;;;;5020062;28;20189;-79
2023/07/06 12:54:24;;;;;;;5.30;1.80;;;20.50;56.60;;;;;;5023977;28;20058;-80
2023/07/06 12:56:59;;;;;;;6.28;1.60;;;20.50;57.10;;;;;;5022367;28;20041;-80
2023/07/06 12:59:32;;;;;;;5.80;1.60;;;20.50;56.50;;;;;;5023115;28;20042;-77
2023/07/06 13:02:00;;;;;;;4.47;1.50;;;20.60;56.30;;;;;;5020817;28;20057;-77